createdAt,value
2022-10-30T00:00:49.417Z,100.00
2022-10-30T00:03:17.335Z,100.00
2022-10-30T00:05:47.444Z,100.00
2022-10-30T00:08:17.371Z,100.00
2022-10-30T00:10:45.005Z,100.00
2022-10-30T00:13:13.365Z,100.00
2022-10-30T00:15:46.912Z,100.00
2022-10-30T00:18:14.679Z,100.00
2022-10-30T00:20:41.713Z,100.00
2022-10-30T00:23:08.613Z,100.00
2022-10-30T00:25:36.608Z,100.00
2022-10-30T00:28:07.464Z,100.00
2022-10-30T00:30:35.311Z,100.00
2022-10-30T00:33:02.519Z,100.00
2022-10-30T00:35:30.401Z,100.00
2022-10-30T00:37:57.957Z,100.00
2022-10-30T00:40:25.225Z,100.00
2022-10-30T00:42:52.198Z,100.00
2022-10-30T00:45:19.328Z,100.00
2022-10-30T00:47:51.940Z,100.00
2022-10-30T00:53:01.998Z,100.00
2022-10-30T00:55:43.691Z,100.00
2022-10-30T00:58:16.595Z,100.00
2022-10-30T01:00:50.398Z,100.00
2022-10-30T01:03:19.461Z,100.00
2022-10-30T01:05:52.945Z,100.00
2022-10-30T01:08:20.470Z,100.00
2022-10-30T01:10:48.567Z,100.00
2022-10-30T01:13:17.250Z,100.00
2022-10-30T01:16:19.373Z,100.00
2022-10-30T01:19:36.528Z,100.00
2022-10-30T01:22:21.752Z,100.00
2022-10-30T01:25:19.450Z,100.00
2022-10-30T01:29:01.138Z,100.00
2022-10-30T01:32:08.156Z,100.00
2022-10-30T01:34:58.703Z,100.00
2022-10-30T01:37:40.407Z,100.00
2022-10-30T01:40:15.075Z,100.00
2022-10-30T01:42:53.002Z,100.00
2022-10-30T01:46:26.732Z,100.00
2022-10-30T01:49:17.481Z,100.00
2022-10-30T01:52:17.624Z,100.00
2022-10-30T01:54:53.531Z,100.00
2022-10-30T01:57:52.775Z,100.00
2022-10-30T02:00:20.471Z,100.00
2022-10-30T02:02:52.106Z,100.00
2022-10-30T02:05:37.762Z,100.00
2022-10-30T02:08:05.661Z,100.00
2022-10-30T02:10:37.412Z,100.00
2022-10-30T02:13:05.387Z,100.00
2022-10-30T02:15:33.112Z,100.00
2022-10-30T02:18:00.988Z,100.00
2022-10-30T02:20:28.990Z,100.00
2022-10-30T02:22:59.100Z,100.00
2022-10-30T02:25:30.959Z,100.00
2022-10-30T02:27:59.345Z,100.00
2022-10-30T02:30:28.596Z,100.00
2022-10-30T02:32:56.037Z,100.00
2022-10-30T02:35:23.299Z,100.00
2022-10-30T02:37:52.188Z,100.00
2022-10-30T02:40:19.202Z,100.00
2022-10-30T02:42:53.123Z,100.00
2022-10-30T02:45:20.333Z,100.00
2022-10-30T02:47:48.257Z,100.00
2022-10-30T02:50:15.316Z,100.00
2022-10-30T02:52:42.400Z,100.00
2022-10-30T02:55:09.959Z,100.00
2022-10-30T02:57:38.281Z,100.00
2022-10-30T03:00:06.168Z,100.00
2022-10-30T03:02:33.266Z,100.00
2022-10-30T03:05:00.475Z,100.00
2022-10-30T03:07:27.694Z,100.00
2022-10-30T03:09:54.973Z,100.00
2022-10-30T03:12:22.788Z,100.00
2022-10-30T03:14:51.834Z,100.00
2022-10-30T03:17:18.811Z,100.00
2022-10-30T03:19:46.054Z,100.00
2022-10-30T03:22:13.313Z,100.00
2022-10-30T03:24:40.260Z,100.00
2022-10-30T03:27:07.263Z,100.00
2022-10-30T03:29:34.260Z,100.00
2022-10-30T03:32:03.009Z,100.00
2022-10-30T03:34:34.487Z,100.00
2022-10-30T03:37:05.366Z,100.00
2022-10-30T03:39:32.395Z,100.00
2022-10-30T03:41:59.362Z,100.00
2022-10-30T03:44:26.372Z,100.00
2022-10-30T03:46:53.867Z,100.00
2022-10-30T03:49:26.288Z,100.00
2022-10-30T03:51:54.527Z,100.00
2022-10-30T03:54:23.426Z,100.00
2022-10-30T03:56:50.377Z,100.00
2022-10-30T03:59:18.153Z,100.00
2022-10-30T04:01:59.671Z,100.00
2022-10-30T04:04:26.974Z,100.00
2022-10-30T04:06:54.032Z,100.00
2022-10-30T04:09:22.753Z,100.00
2022-10-30T04:11:49.852Z,100.00
2022-10-30T04:14:17.421Z,100.00
2022-10-30T04:16:44.574Z,100.00
2022-10-30T04:19:12.385Z,100.00
2022-10-30T04:21:39.921Z,100.00
2022-10-30T04:24:07.959Z,100.00
2022-10-30T04:26:35.967Z,100.00
2022-10-30T04:29:03.124Z,100.00
2022-10-30T04:31:30.067Z,100.00
2022-10-30T04:33:57.149Z,100.00
2022-10-30T04:36:30.380Z,100.00
2022-10-30T04:38:57.377Z,100.00
2022-10-30T04:41:26.736Z,100.00
2022-10-30T04:44:01.538Z,100.00
2022-10-30T04:46:32.725Z,100.00
2022-10-30T04:49:07.082Z,100.00
2022-10-30T04:51:34.086Z,100.00
2022-10-30T04:54:01.884Z,100.00
2022-10-30T04:56:32.942Z,100.00
2022-10-30T04:59:00.484Z,100.00
2022-10-30T05:01:27.560Z,100.00
2022-10-30T05:03:55.285Z,100.00
2022-10-30T05:06:26.653Z,100.00
2022-10-30T05:08:55.759Z,100.00
2022-10-30T05:11:38.217Z,100.00
2022-10-30T05:14:05.224Z,100.00
2022-10-30T05:16:32.191Z,100.00
2022-10-30T05:19:01.118Z,100.00
2022-10-30T05:21:29.150Z,100.00
2022-10-30T05:23:56.286Z,100.00
2022-10-30T05:26:23.886Z,100.00
2022-10-30T05:28:52.306Z,100.00
2022-10-30T05:31:19.674Z,100.00
2022-10-30T05:34:07.384Z,100.00
2022-10-30T05:36:36.032Z,100.00
2022-10-30T05:39:04.151Z,100.00
2022-10-30T05:41:35.527Z,100.00
2022-10-30T05:44:03.259Z,100.00
2022-10-30T05:46:30.701Z,100.00
2022-10-30T05:49:06.838Z,100.00
2022-10-30T05:51:38.119Z,100.00
2022-10-30T05:54:08.850Z,100.00
2022-10-30T05:56:39.915Z,100.00
2022-10-30T05:59:07.093Z,100.00
2022-10-30T06:01:34.181Z,100.00
2022-10-30T06:04:05.493Z,100.00
2022-10-30T06:06:33.259Z,100.00
2022-10-30T06:09:00.768Z,100.00
2022-10-30T06:11:50.714Z,100.00
2022-10-30T06:14:20.322Z,100.00
2022-10-30T06:16:50.721Z,100.00
2022-10-30T06:19:26.393Z,100.00
2022-10-30T06:21:58.873Z,100.00
2022-10-30T06:24:41.196Z,100.00
2022-10-30T06:27:41.347Z,100.00
2022-10-30T06:30:08.880Z,100.00
2022-10-30T06:32:36.007Z,100.00
2022-10-30T06:35:03.400Z,100.00
2022-10-30T06:37:30.540Z,100.00
2022-10-30T06:40:00.407Z,100.00
2022-10-30T06:42:51.482Z,100.00
2022-10-30T06:45:36.276Z,100.00
2022-10-30T06:48:03.423Z,100.00
2022-10-30T06:50:35.502Z,100.00
2022-10-30T06:53:02.450Z,100.00
2022-10-30T06:55:29.511Z,100.00
2022-10-30T06:58:15.235Z,100.00
2022-10-30T07:00:55.251Z,100.00
2022-10-30T07:03:40.738Z,100.00
2022-10-30T07:06:08.163Z,100.00
2022-10-30T07:08:35.280Z,100.00
2022-10-30T07:11:02.265Z,100.00
2022-10-30T07:13:47.668Z,100.00
2022-10-30T07:16:26.703Z,100.00
2022-10-30T07:18:53.750Z,100.00
2022-10-30T07:21:20.741Z,100.00
2022-10-30T07:23:48.374Z,100.00
2022-10-30T07:26:29.006Z,100.00
2022-10-30T07:28:59.540Z,100.00
2022-10-30T07:31:42.273Z,100.00
2022-10-30T07:34:51.294Z,100.00
2022-10-30T07:37:30.854Z,100.00
2022-10-30T07:40:13.526Z,100.00
2022-10-30T07:43:01.342Z,95.43
2022-10-30T07:45:57.664Z,100.00
2022-10-30T07:48:43.409Z,100.00
2022-10-30T07:51:36.942Z,100.00
2022-10-30T07:54:04.138Z,100.00
2022-10-30T07:56:32.853Z,100.00
2022-10-30T07:59:18.506Z,99.34
2022-10-30T08:02:06.002Z,100.00
2022-10-30T08:04:50.682Z,100.00
2022-10-30T08:07:35.401Z,99.74
2022-10-30T08:10:02.489Z,99.42
2022-10-30T08:12:29.751Z,96.80
2022-10-30T08:14:56.621Z,98.73
2022-10-30T08:17:23.618Z,99.26
2022-10-30T08:19:50.764Z,100.00
2022-10-30T08:22:18.344Z,100.00
2022-10-30T08:24:51.839Z,100.00
2022-10-30T08:27:19.171Z,100.00
2022-10-30T08:29:46.898Z,100.00
2022-10-30T08:32:13.883Z,99.74
2022-10-30T08:35:20.216Z,98.11
2022-10-30T08:37:47.514Z,100.00
2022-10-30T08:40:14.651Z,95.72
2022-10-30T08:42:56.001Z,100.00
2022-10-30T08:45:29.792Z,100.00
2022-10-30T08:48:06.300Z,96.55
2022-10-30T08:50:37.991Z,100.00
2022-10-30T08:53:08.308Z,100.00
2022-10-30T08:55:35.919Z,100.00
2022-10-30T08:58:05.956Z,100.00
2022-10-30T09:00:34.117Z,100.00
2022-10-30T09:03:13.131Z,100.00
2022-10-30T09:06:12.497Z,99.30
2022-10-30T09:09:15.465Z,100.00
2022-10-30T09:11:48.966Z,100.00
2022-10-30T09:14:16.108Z,100.00
2022-10-30T09:16:43.065Z,100.00
2022-10-30T09:19:14.742Z,100.00
2022-10-30T09:21:44.988Z,100.00
2022-10-30T09:24:11.971Z,100.00
2022-10-30T09:26:39.013Z,100.00
2022-10-30T09:29:12.311Z,100.00
2022-10-30T09:31:58.728Z,100.00
2022-10-30T09:34:31.087Z,92.62
2022-10-30T09:37:13.071Z,100.00
2022-10-30T09:39:40.077Z,100.00
2022-10-30T09:42:41.167Z,100.00
2022-10-30T09:45:45.325Z,100.00
2022-10-30T09:48:50.159Z,100.00
2022-10-30T09:52:03.934Z,93.24
2022-10-30T09:55:04.748Z,100.00
2022-10-30T09:57:57.747Z,100.00
2022-10-30T10:00:36.621Z,100.00
2022-10-30T10:04:02.793Z,100.00
2022-10-30T10:07:07.595Z,100.00
2022-10-30T10:09:45.749Z,100.00
2022-10-30T10:12:43.504Z,100.00
2022-10-30T10:15:47.040Z,100.00
2022-10-30T10:18:23.450Z,100.00
2022-10-30T10:20:55.713Z,100.00
2022-10-30T10:23:39.192Z,100.00
2022-10-30T10:26:29.607Z,100.00
2022-10-30T10:29:44.324Z,100.00
2022-10-30T10:32:52.231Z,100.00
2022-10-30T10:35:53.519Z,99.13
2022-10-30T10:38:53.795Z,100.00
2022-10-30T10:41:35.650Z,100.00
2022-10-30T10:44:38.413Z,99.71
2022-10-30T10:47:33.354Z,100.00
2022-10-30T10:50:26.127Z,100.00
2022-10-30T10:53:42.821Z,89.78
2022-10-30T10:56:10.897Z,92.79
2022-10-30T10:58:49.711Z,94.16
2022-10-30T11:01:37.383Z,87.75
2022-10-30T11:04:42.279Z,99.23
2022-10-30T11:07:34.262Z,89.07
2022-10-30T11:10:01.573Z,92.84
2022-10-30T11:12:38.552Z,89.05
2022-10-30T11:15:38.084Z,82.80
2022-10-30T11:18:09.017Z,84.08
2022-10-30T11:20:50.075Z,83.10
2022-10-30T11:23:45.132Z,75.88
2022-10-30T11:26:18.287Z,57.12
2022-10-30T11:28:58.853Z,50.54
2022-10-30T11:31:34.706Z,48.00
2022-10-30T11:34:19.933Z,44.94
2022-10-30T11:36:52.291Z,44.31
2022-10-30T11:39:30.651Z,44.29
2022-10-30T11:42:11.799Z,44.08
2022-10-30T11:44:43.851Z,42.84
2022-10-30T11:47:14.588Z,42.87
2022-10-30T11:49:54.755Z,47.91
2022-10-30T11:52:24.054Z,53.81
2022-10-30T11:54:56.896Z,59.40
2022-10-30T11:57:36.377Z,48.38
2022-10-30T12:00:08.310Z,61.24
2022-10-30T12:02:44.773Z,63.87
2022-10-30T12:05:39.047Z,53.36
2022-10-30T12:08:09.181Z,59.85
2022-10-30T12:10:47.709Z,58.47
2022-10-30T12:13:20.678Z,51.51
2022-10-30T12:15:51.443Z,50.46
2022-10-30T12:21:00.864Z,55.84
2022-10-30T12:23:29.649Z,58.61
2022-10-30T12:26:08.338Z,57.92
2022-10-30T12:28:36.009Z,65.70
2022-10-30T12:31:15.244Z,69.00
2022-10-30T12:34:06.317Z,77.02
2022-10-30T12:36:46.050Z,75.16
2022-10-30T12:39:30.681Z,92.19
2022-10-30T12:42:11.709Z,100.00
2022-10-30T12:45:10.994Z,100.00
2022-10-30T12:48:11.064Z,100.00
2022-10-30T12:51:21.221Z,100.00
2022-10-30T12:54:02.094Z,100.00
2022-10-30T12:56:35.858Z,100.00
2022-10-30T12:59:33.585Z,100.00
2022-10-30T13:02:28.725Z,100.00
2022-10-30T13:05:04.379Z,100.00
2022-10-30T13:07:50.292Z,95.71
2022-10-30T13:10:26.127Z,86.53
2022-10-30T13:13:02.043Z,100.00
2022-10-30T13:15:36.541Z,100.00
2022-10-30T13:18:17.072Z,100.00
2022-10-30T13:21:13.077Z,100.00
2022-10-30T13:24:02.623Z,100.00
2022-10-30T13:26:42.969Z,97.12
2022-10-30T13:29:22.247Z,97.08
2022-10-30T13:32:07.156Z,96.22
2022-10-30T13:34:57.174Z,100.00
2022-10-30T13:37:52.469Z,100.00
2022-10-30T13:40:42.273Z,95.03
2022-10-30T13:44:01.864Z,96.65
2022-10-30T13:47:05.368Z,100.00
2022-10-30T13:50:12.793Z,96.39
2022-10-30T13:52:47.329Z,92.24
2022-10-30T13:55:26.165Z,93.49
2022-10-30T13:58:12.893Z,100.00
2022-10-30T14:01:18.205Z,100.00
2022-10-30T14:04:24.404Z,91.09
2022-10-30T14:07:23.619Z,100.00
2022-10-30T14:10:09.212Z,100.00
2022-10-30T14:12:57.708Z,98.53
2022-10-30T14:15:30.932Z,100.00
2022-10-30T14:18:13.439Z,100.00
2022-10-30T14:20:49.620Z,100.00
2022-10-30T14:23:27.850Z,98.80
2022-10-30T14:26:19.836Z,97.86
2022-10-30T14:28:48.985Z,96.55
2022-10-30T14:31:33.746Z,100.00
2022-10-30T14:34:01.034Z,100.00
2022-10-30T14:36:34.339Z,100.00
2022-10-30T14:39:10.523Z,100.00
2022-10-30T14:42:08.941Z,100.00
2022-10-30T14:45:14.585Z,100.00
2022-10-30T14:48:27.679Z,95.36
2022-10-30T14:51:19.910Z,100.00
2022-10-30T14:54:17.130Z,100.00
2022-10-30T14:56:52.654Z,100.00
2022-10-30T14:59:19.541Z,100.00
2022-10-30T15:02:13.117Z,99.55
2022-10-30T15:05:33.972Z,100.00
2022-10-30T15:08:34.095Z,100.00
2022-10-30T15:11:33.333Z,100.00
2022-10-30T15:14:21.114Z,100.00
2022-10-30T15:16:51.344Z,100.00
2022-10-30T15:19:19.638Z,100.00
2022-10-30T15:21:51.916Z,100.00
2022-10-30T15:24:29.640Z,100.00
2022-10-30T15:27:00.910Z,100.00
2022-10-30T15:29:33.238Z,100.00
2022-10-30T15:32:25.484Z,100.00
2022-10-30T15:35:01.804Z,100.00
2022-10-30T15:37:29.155Z,100.00
2022-10-30T15:40:18.010Z,100.00
2022-10-30T15:42:47.321Z,100.00
2022-10-30T15:45:21.243Z,100.00
2022-10-30T15:47:57.746Z,94.93
2022-10-30T15:50:25.090Z,100.00
2022-10-30T15:52:53.933Z,91.98
2022-10-30T15:55:29.812Z,89.12
2022-10-30T15:58:04.993Z,96.85
2022-10-30T16:00:37.004Z,94.49
2022-10-30T16:03:12.995Z,86.81
2022-10-30T16:05:40.030Z,88.61
2022-10-30T16:08:21.655Z,85.45
2022-10-30T16:10:54.419Z,72.43
2022-10-30T16:13:30.254Z,78.17
2022-10-30T16:15:57.618Z,93.75
2022-10-30T16:18:32.276Z,90.43
2022-10-30T16:21:07.417Z,89.82
2022-10-30T16:23:40.956Z,87.94
2022-10-30T16:26:32.810Z,85.52
2022-10-30T16:29:18.376Z,73.87
2022-10-30T16:31:49.875Z,84.75
2022-10-30T16:34:35.895Z,81.22
2022-10-30T16:37:05.434Z,76.17
2022-10-30T16:39:34.167Z,75.99
2022-10-30T16:42:01.865Z,74.85
2022-10-30T16:44:35.800Z,73.14
2022-10-30T16:47:25.135Z,70.71
2022-10-30T16:49:58.043Z,72.99
2022-10-30T16:52:31.174Z,73.47
2022-10-30T16:55:06.828Z,73.04
2022-10-30T16:57:41.759Z,72.90
2022-10-30T17:00:26.039Z,72.42
2022-10-30T17:02:57.938Z,75.04
2022-10-30T17:05:33.702Z,73.32
2022-10-30T17:08:09.251Z,74.91
2022-10-30T17:11:07.399Z,74.15
2022-10-30T17:13:42.781Z,77.39
2022-10-30T17:16:25.242Z,75.91
2022-10-30T17:19:01.743Z,77.39
2022-10-30T17:21:40.933Z,75.97
2022-10-30T17:24:34.861Z,75.37
2022-10-30T17:27:06.100Z,79.71
2022-10-30T17:29:41.811Z,77.25
2022-10-30T17:32:42.529Z,79.14
2022-10-30T17:35:19.395Z,80.18
2022-10-30T17:37:46.730Z,80.94
2022-10-30T17:40:14.287Z,79.28
2022-10-30T17:42:41.975Z,82.00
2022-10-30T17:45:14.485Z,84.04
2022-10-30T17:47:42.047Z,85.73
2022-10-30T17:50:09.612Z,86.00
2022-10-30T17:52:36.663Z,85.61
2022-10-30T17:55:24.503Z,83.45
2022-10-30T17:57:52.181Z,86.29
2022-10-30T18:00:19.784Z,85.02
2022-10-30T18:02:47.193Z,86.07
2022-10-30T18:05:18.194Z,86.63
2022-10-30T18:07:45.477Z,85.24
2022-10-30T18:10:13.240Z,85.48
2022-10-30T18:12:41.350Z,86.53
2022-10-30T18:15:19.925Z,82.19
2022-10-30T18:17:47.099Z,85.52
2022-10-30T18:20:14.176Z,86.15
2022-10-30T18:22:41.191Z,86.11
2022-10-30T18:25:25.747Z,90.10
2022-10-30T18:27:53.371Z,93.83
2022-10-30T18:30:21.610Z,96.84
2022-10-30T18:32:49.095Z,96.89
2022-10-30T18:35:28.692Z,94.90
2022-10-30T18:37:55.727Z,95.07
2022-10-30T18:40:22.949Z,95.14
2022-10-30T18:42:58.577Z,96.91
2022-10-30T18:45:33.808Z,92.57
2022-10-30T18:48:01.967Z,97.81
2022-10-30T18:50:30.627Z,94.69
2022-10-30T18:52:59.784Z,91.67
2022-10-30T18:55:37.308Z,92.50
2022-10-30T18:58:05.631Z,93.51
2022-10-30T19:00:51.166Z,91.36
2022-10-30T19:03:20.600Z,90.63
2022-10-30T19:05:50.865Z,83.12
2022-10-30T19:08:17.901Z,84.87
2022-10-30T19:10:49.864Z,95.58
2022-10-30T19:13:22.349Z,97.94
2022-10-30T19:15:57.414Z,99.23
2022-10-30T19:18:28.580Z,98.57
2022-10-30T19:21:04.308Z,97.25
2022-10-30T19:23:32.958Z,92.86
2022-10-30T19:25:59.992Z,96.00
2022-10-30T19:28:27.081Z,97.10
2022-10-30T19:30:54.840Z,95.86
2022-10-30T19:33:23.805Z,94.91
2022-10-30T19:36:04.575Z,95.22
2022-10-30T19:38:32.559Z,99.25
2022-10-30T19:41:00.337Z,100.00
2022-10-30T19:43:27.463Z,97.28
2022-10-30T19:45:59.147Z,98.30
2022-10-30T19:48:56.728Z,100.00
2022-10-30T19:51:13.555Z,99.73
2022-10-30T19:53:41.103Z,98.14
2022-10-30T19:56:11.581Z,100.00
2022-10-30T19:58:38.634Z,100.00
2022-10-30T20:01:05.852Z,100.00
2022-10-30T20:03:32.859Z,100.00
2022-10-30T20:05:59.841Z,100.00
2022-10-30T20:08:26.925Z,100.00
2022-10-30T20:10:57.656Z,100.00
2022-10-30T20:13:27.071Z,98.36
2022-10-30T20:15:56.729Z,100.00
2022-10-30T20:18:30.285Z,96.74
2022-10-30T20:21:01.649Z,93.68
2022-10-30T20:23:29.151Z,97.51
2022-10-30T20:26:03.393Z,100.00
2022-10-30T20:28:38.214Z,100.00
2022-10-30T20:31:06.618Z,97.56
2022-10-30T20:33:34.218Z,97.14
2022-10-30T20:36:01.170Z,97.27
2022-10-30T20:38:32.721Z,98.57
2022-10-30T20:41:02.131Z,96.43
2022-10-30T20:43:38.113Z,99.87
2022-10-30T20:46:09.273Z,100.00
2022-10-30T20:48:37.872Z,100.00
2022-10-30T20:51:06.676Z,100.00
2022-10-30T20:53:34.081Z,100.00
2022-10-30T20:56:01.271Z,100.00
2022-10-30T20:58:28.563Z,100.00
2022-10-30T21:00:58.448Z,100.00
2022-10-30T21:03:26.754Z,100.00
2022-10-30T21:06:00.123Z,100.00
2022-10-30T21:08:29.531Z,100.00
2022-10-30T21:11:01.615Z,100.00
2022-10-30T21:13:28.996Z,100.00
2022-10-30T21:16:02.267Z,100.00
2022-10-30T21:18:29.540Z,100.00
2022-10-30T21:21:08.483Z,100.00
2022-10-30T21:23:35.592Z,100.00
2022-10-30T21:26:06.264Z,100.00
2022-10-30T21:28:33.468Z,100.00
2022-10-30T21:31:05.841Z,100.00
2022-10-30T21:33:34.940Z,100.00
2022-10-30T21:36:18.157Z,100.00
2022-10-30T21:38:45.216Z,100.00
2022-10-30T21:41:16.460Z,100.00
2022-10-30T21:43:48.797Z,100.00
2022-10-30T21:46:15.704Z,100.00
2022-10-30T21:48:42.617Z,100.00
2022-10-30T21:51:16.549Z,100.00
2022-10-30T21:53:44.532Z,100.00
2022-10-30T21:56:18.580Z,100.00
2022-10-30T21:58:46.759Z,100.00
2022-10-30T22:01:18.349Z,100.00
2022-10-30T22:03:46.654Z,100.00
2022-10-30T22:06:16.721Z,100.00
2022-10-30T22:08:49.536Z,100.00
2022-10-30T22:11:17.611Z,100.00
2022-10-30T22:13:45.332Z,100.00
2022-10-30T22:16:14.615Z,100.00
2022-10-30T22:18:41.520Z,100.00
2022-10-30T22:21:12.398Z,100.00
2022-10-30T22:23:40.660Z,100.00
2022-10-30T22:26:13.389Z,100.00
2022-10-30T22:28:41.278Z,100.00
2022-10-30T22:31:15.430Z,100.00
2022-10-30T22:33:43.359Z,100.00
2022-10-30T22:36:25.183Z,100.00
2022-10-30T22:39:00.314Z,100.00
2022-10-30T22:41:32.860Z,100.00
2022-10-30T22:44:09.806Z,100.00
2022-10-30T22:46:37.237Z,100.00
2022-10-30T22:49:04.906Z,100.00
2022-10-30T22:51:34.920Z,100.00
2022-10-30T22:54:05.206Z,100.00
2022-10-30T22:56:34.524Z,100.00
2022-10-30T22:59:08.189Z,100.00
2022-10-30T23:01:38.233Z,100.00
2022-10-30T23:04:08.020Z,100.00
2022-10-30T23:06:36.036Z,100.00
2022-10-30T23:09:08.484Z,100.00
2022-10-30T23:11:35.781Z,100.00
2022-10-30T23:14:02.707Z,100.00
2022-10-30T23:16:29.742Z,100.00
2022-10-30T23:18:59.243Z,100.00
2022-10-30T23:21:30.040Z,100.00
2022-10-30T23:23:57.966Z,100.00
2022-10-30T23:26:35.631Z,100.00
2022-10-30T23:29:03.230Z,100.00
2022-10-30T23:31:40.385Z,100.00
2022-10-30T23:34:11.426Z,100.00
2022-10-30T23:36:39.034Z,100.00
2022-10-30T23:39:10.152Z,100.00
2022-10-30T23:41:37.061Z,100.00
2022-10-30T23:44:07.602Z,100.00
2022-10-30T23:46:36.068Z,100.00
2022-10-30T23:49:04.488Z,100.00
2022-10-30T23:51:31.748Z,100.00
2022-10-30T23:53:58.894Z,100.00
2022-10-30T23:56:26.117Z,100.00
2022-10-30T23:58:53.400Z,100.00
